sensor_id;sensor_type;location;lat;lon;timestamp;P1;durP1;ratioP1;P2;durP2;ratioP2
4577;SDS011;2301;47.354;8.528;2022-08-02T00:00:34;9.30;;;6.50;;
4577;SDS011;2301;47.354;8.528;2022-08-02T00:03:02;6.73;;;5.90;;
4577;SDS011;2301;47.354;8.528;2022-08-02T00:05:32;9.77;;;6.50;;
4577;SDS011;2301;47.354;8.528;2022-08-02T00:07:59;10.20;;;7.47;;
4577;SDS011;2301;47.354;8.528;2022-08-02T00:10:26;8.90;;;6.50;;
4577;SDS011;2301;47.354;8.528;2022-08-02T00:13:06;7.43;;;6.30;;
4577;SDS011;2301;47.354;8.528;2022-08-02T00:15:34;6.93;;;6.23;;
4577;SDS011;2301;47.354;8.528;2022-08-02T00:18:04;8.73;;;6.90;;
4577;SDS011;2301;47.354;8.528;2022-08-02T00:20:31;6.80;;;6.10;;
4577;SDS011;2301;47.354;8.528;2022-08-02T00:22:59;12.30;;;7.10;;
4577;SDS011;2301;47.354;8.528;2022-08-02T00:25:26;11.90;;;7.50;;
4577;SDS011;2301;47.354;8.528;2022-08-02T00:27:53;8.20;;;7.40;;
4577;SDS011;2301;47.354;8.528;2022-08-02T00:30:20;10.67;;;6.70;;
4577;SDS011;2301;47.354;8.528;2022-08-02T00:32:50;7.87;;;6.67;;
4577;SDS011;2301;47.354;8.528;2022-08-02T00:35:17;9.17;;;7.00;;
4577;SDS011;2301;47.354;8.528;2022-08-02T00:37:44;9.90;;;6.93;;
4577;SDS011;2301;47.354;8.528;2022-08-02T00:40:11;8.27;;;6.03;;
4577;SDS011;2301;47.354;8.528;2022-08-02T00:42:39;9.53;;;6.80;;
4577;SDS011;2301;47.354;8.528;2022-08-02T00:45:06;7.13;;;6.07;;
4577;SDS011;2301;47.354;8.528;2022-08-02T00:47:38;8.73;;;6.20;;
4577;SDS011;2301;47.354;8.528;2022-08-02T00:50:07;15.70;;;6.97;;
4577;SDS011;2301;47.354;8.528;2022-08-02T00:52:36;12.73;;;7.53;;
4577;SDS011;2301;47.354;8.528;2022-08-02T00:55:04;10.67;;;6.80;;
4577;SDS011;2301;47.354;8.528;2022-08-02T00:57:37;8.37;;;6.20;;
4577;SDS011;2301;47.354;8.528;2022-08-02T01:00:04;9.60;;;6.67;;
4577;SDS011;2301;47.354;8.528;2022-08-02T01:02:35;12.53;;;7.53;;
4577;SDS011;2301;47.354;8.528;2022-08-02T01:05:03;18.40;;;7.23;;
4577;SDS011;2301;47.354;8.528;2022-08-02T01:07:35;8.50;;;6.60;;
4577;SDS011;2301;47.354;8.528;2022-08-02T01:10:02;13.10;;;6.57;;
4577;SDS011;2301;47.354;8.528;2022-08-02T01:12:30;9.30;;;6.00;;
4577;SDS011;2301;47.354;8.528;2022-08-02T01:14:59;8.73;;;6.00;;
4577;SDS011;2301;47.354;8.528;2022-08-02T01:17:31;7.83;;;5.97;;
4577;SDS011;2301;47.354;8.528;2022-08-02T01:20:06;8.50;;;7.07;;
4577;SDS011;2301;47.354;8.528;2022-08-02T01:22:50;8.90;;;6.73;;
4577;SDS011;2301;47.354;8.528;2022-08-02T01:28:37;10.30;;;7.10;;
4577;SDS011;2301;47.354;8.528;2022-08-02T01:31:09;11.07;;;7.10;;
4577;SDS011;2301;47.354;8.528;2022-08-02T01:33:46;9.50;;;6.30;;
4577;SDS011;2301;47.354;8.528;2022-08-02T01:36:17;7.83;;;7.03;;
4577;SDS011;2301;47.354;8.528;2022-08-02T01:38:48;8.20;;;6.43;;
4577;SDS011;2301;47.354;8.528;2022-08-02T01:41:19;7.43;;;6.40;;
4577;SDS011;2301;47.354;8.528;2022-08-02T01:43:51;10.63;;;6.50;;
4577;SDS011;2301;47.354;8.528;2022-08-02T01:46:26;9.93;;;6.20;;
4577;SDS011;2301;47.354;8.528;2022-08-02T01:48:58;8.73;;;6.60;;
4577;SDS011;2301;47.354;8.528;2022-08-02T01:51:31;10.27;;;6.40;;
4577;SDS011;2301;47.354;8.528;2022-08-02T01:54:23;7.77;;;6.07;;
4577;SDS011;2301;47.354;8.528;2022-08-02T01:56:52;8.17;;;6.20;;
4577;SDS011;2301;47.354;8.528;2022-08-02T01:59:22;8.37;;;6.20;;
4577;SDS011;2301;47.354;8.528;2022-08-02T02:01:50;6.20;;;5.23;;
4577;SDS011;2301;47.354;8.528;2022-08-02T02:04:22;6.63;;;6.00;;
4577;SDS011;2301;47.354;8.528;2022-08-02T02:06:54;7.87;;;5.37;;
4577;SDS011;2301;47.354;8.528;2022-08-02T02:09:22;8.73;;;6.17;;
4577;SDS011;2301;47.354;8.528;2022-08-02T02:11:57;10.17;;;6.90;;
4577;SDS011;2301;47.354;8.528;2022-08-02T02:14:27;8.10;;;6.37;;
4577;SDS011;2301;47.354;8.528;2022-08-02T02:16:56;12.67;;;6.23;;
4577;SDS011;2301;47.354;8.528;2022-08-02T02:19:25;5.90;;;5.00;;
4577;SDS011;2301;47.354;8.528;2022-08-02T02:21:55;6.80;;;5.47;;
4577;SDS011;2301;47.354;8.528;2022-08-02T02:24:22;11.00;;;5.47;;
4577;SDS011;2301;47.354;8.528;2022-08-02T02:26:50;6.87;;;5.57;;
4577;SDS011;2301;47.354;8.528;2022-08-02T02:29:20;6.73;;;5.60;;
4577;SDS011;2301;47.354;8.528;2022-08-02T02:31:54;7.10;;;5.33;;
4577;SDS011;2301;47.354;8.528;2022-08-02T02:34:25;10.30;;;6.80;;
4577;SDS011;2301;47.354;8.528;2022-08-02T02:36:54;7.20;;;5.40;;
4577;SDS011;2301;47.354;8.528;2022-08-02T02:39:29;7.20;;;5.60;;
4577;SDS011;2301;47.354;8.528;2022-08-02T02:42:02;6.23;;;5.60;;
4577;SDS011;2301;47.354;8.528;2022-08-02T02:44:32;8.50;;;5.60;;
4577;SDS011;2301;47.354;8.528;2022-08-02T02:47:07;5.63;;;5.13;;
4577;SDS011;2301;47.354;8.528;2022-08-02T02:49:35;5.10;;;4.60;;
4577;SDS011;2301;47.354;8.528;2022-08-02T02:52:04;7.20;;;5.30;;
4577;SDS011;2301;47.354;8.528;2022-08-02T02:54:32;6.87;;;5.33;;
4577;SDS011;2301;47.354;8.528;2022-08-02T02:57:02;6.27;;;5.60;;
4577;SDS011;2301;47.354;8.528;2022-08-02T02:59:31;5.47;;;4.97;;
4577;SDS011;2301;47.354;8.528;2022-08-02T03:01:59;7.80;;;5.70;;
4577;SDS011;2301;47.354;8.528;2022-08-02T03:04:32;5.60;;;5.00;;
4577;SDS011;2301;47.354;8.528;2022-08-02T03:07:01;5.77;;;5.20;;
4577;SDS011;2301;47.354;8.528;2022-08-02T03:09:28;12.70;;;5.10;;
4577;SDS011;2301;47.354;8.528;2022-08-02T03:11:55;6.00;;;5.43;;
4577;SDS011;2301;47.354;8.528;2022-08-02T03:14:27;7.23;;;5.70;;
4577;SDS011;2301;47.354;8.528;2022-08-02T03:16:55;6.10;;;5.50;;
4577;SDS011;2301;47.354;8.528;2022-08-02T03:19:25;8.70;;;5.17;;
4577;SDS011;2301;47.354;8.528;2022-08-02T03:21:53;8.73;;;5.40;;
4577;SDS011;2301;47.354;8.528;2022-08-02T03:24:20;10.13;;;5.60;;
4577;SDS011;2301;47.354;8.528;2022-08-02T03:26:47;7.73;;;5.00;;
4577;SDS011;2301;47.354;8.528;2022-08-02T03:29:14;10.80;;;4.97;;
4577;SDS011;2301;47.354;8.528;2022-08-02T03:31:41;7.63;;;5.40;;
4577;SDS011;2301;47.354;8.528;2022-08-02T03:34:11;6.30;;;5.03;;
4577;SDS011;2301;47.354;8.528;2022-08-02T03:36:38;6.70;;;5.50;;
4577;SDS011;2301;47.354;8.528;2022-08-02T03:39:08;7.97;;;5.27;;
4577;SDS011;2301;47.354;8.528;2022-08-02T03:41:38;6.40;;;5.60;;
4577;SDS011;2301;47.354;8.528;2022-08-02T03:44:07;5.77;;;4.70;;
4577;SDS011;2301;47.354;8.528;2022-08-02T03:46:37;5.83;;;5.00;;
4577;SDS011;2301;47.354;8.528;2022-08-02T03:49:07;5.53;;;4.97;;
4577;SDS011;2301;47.354;8.528;2022-08-02T03:51:42;5.80;;;5.27;;
4577;SDS011;2301;47.354;8.528;2022-08-02T03:54:11;5.30;;;4.80;;
4577;SDS011;2301;47.354;8.528;2022-08-02T03:56:39;10.97;;;4.97;;
4577;SDS011;2301;47.354;8.528;2022-08-02T03:59:07;5.80;;;5.23;;
4577;SDS011;2301;47.354;8.528;2022-08-02T04:01:35;6.23;;;4.50;;
4577;SDS011;2301;47.354;8.528;2022-08-02T04:04:02;7.60;;;5.57;;
4577;SDS011;2301;47.354;8.528;2022-08-02T04:06:30;6.27;;;4.93;;
4577;SDS011;2301;47.354;8.528;2022-08-02T04:08:58;6.00;;;5.50;;
4577;SDS011;2301;47.354;8.528;2022-08-02T04:11:26;5.40;;;4.90;;
4577;SDS011;2301;47.354;8.528;2022-08-02T04:13:58;5.90;;;4.80;;
4577;SDS011;2301;47.354;8.528;2022-08-02T04:16:37;6.97;;;4.87;;
4577;SDS011;2301;47.354;8.528;2022-08-02T04:19:08;8.97;;;5.60;;
4577;SDS011;2301;47.354;8.528;2022-08-02T04:21:39;8.63;;;5.83;;
4577;SDS011;2301;47.354;8.528;2022-08-02T04:24:08;4.83;;;4.33;;
4577;SDS011;2301;47.354;8.528;2022-08-02T04:26:38;8.77;;;4.87;;
4577;SDS011;2301;47.354;8.528;2022-08-02T04:29:08;6.63;;;5.40;;
4577;SDS011;2301;47.354;8.528;2022-08-02T04:31:36;7.53;;;5.13;;
4577;SDS011;2301;47.354;8.528;2022-08-02T04:34:04;6.80;;;4.97;;
4577;SDS011;2301;47.354;8.528;2022-08-02T04:36:35;6.33;;;5.13;;
4577;SDS011;2301;47.354;8.528;2022-08-02T04:39:03;6.47;;;4.73;;
4577;SDS011;2301;47.354;8.528;2022-08-02T04:41:39;6.97;;;4.67;;
4577;SDS011;2301;47.354;8.528;2022-08-02T04:44:13;7.87;;;6.03;;
4577;SDS011;2301;47.354;8.528;2022-08-02T04:46:40;8.50;;;4.90;;
4577;SDS011;2301;47.354;8.528;2022-08-02T04:49:08;7.30;;;4.70;;
4577;SDS011;2301;47.354;8.528;2022-08-02T04:51:35;9.80;;;5.40;;
4577;SDS011;2301;47.354;8.528;2022-08-02T04:54:03;5.80;;;4.97;;
4577;SDS011;2301;47.354;8.528;2022-08-02T04:56:33;6.30;;;4.77;;
4577;SDS011;2301;47.354;8.528;2022-08-02T04:59:02;7.07;;;5.33;;
4577;SDS011;2301;47.354;8.528;2022-08-02T05:01:29;10.67;;;5.93;;
4577;SDS011;2301;47.354;8.528;2022-08-02T05:03:56;7.70;;;5.13;;
4577;SDS011;2301;47.354;8.528;2022-08-02T05:06:23;7.03;;;5.67;;
4577;SDS011;2301;47.354;8.528;2022-08-02T05:08:53;8.40;;;5.93;;
4577;SDS011;2301;47.354;8.528;2022-08-02T05:11:20;6.87;;;5.10;;
4577;SDS011;2301;47.354;8.528;2022-08-02T05:13:47;6.03;;;4.57;;
4577;SDS011;2301;47.354;8.528;2022-08-02T05:16:18;8.80;;;6.10;;
4577;SDS011;2301;47.354;8.528;2022-08-02T05:18:46;8.53;;;5.27;;
4577;SDS011;2301;47.354;8.528;2022-08-02T05:21:15;8.53;;;5.43;;
4577;SDS011;2301;47.354;8.528;2022-08-02T05:23:42;6.33;;;5.70;;
4577;SDS011;2301;47.354;8.528;2022-08-02T05:26:09;6.87;;;5.40;;
4577;SDS011;2301;47.354;8.528;2022-08-02T05:28:36;6.27;;;5.67;;
4577;SDS011;2301;47.354;8.528;2022-08-02T05:31:03;11.03;;;5.87;;
4577;SDS011;2301;47.354;8.528;2022-08-02T05:33:31;8.00;;;6.13;;
4577;SDS011;2301;47.354;8.528;2022-08-02T05:35:58;10.33;;;6.27;;
4577;SDS011;2301;47.354;8.528;2022-08-02T05:38:25;9.03;;;6.77;;
4577;SDS011;2301;47.354;8.528;2022-08-02T05:40:55;8.00;;;5.77;;
4577;SDS011;2301;47.354;8.528;2022-08-02T05:43:22;7.57;;;5.87;;
4577;SDS011;2301;47.354;8.528;2022-08-02T05:45:48;8.77;;;5.80;;
4577;SDS011;2301;47.354;8.528;2022-08-02T05:48:17;7.20;;;5.83;;
4577;SDS011;2301;47.354;8.528;2022-08-02T05:50:46;5.60;;;5.10;;
4577;SDS011;2301;47.354;8.528;2022-08-02T05:53:18;9.20;;;6.00;;
4577;SDS011;2301;47.354;8.528;2022-08-02T05:55:52;8.47;;;6.23;;
4577;SDS011;2301;47.354;8.528;2022-08-02T05:58:29;7.50;;;6.57;;
4577;SDS011;2301;47.354;8.528;2022-08-02T06:01:08;6.50;;;5.80;;
4577;SDS011;2301;47.354;8.528;2022-08-02T06:03:40;8.90;;;5.57;;
4577;SDS011;2301;47.354;8.528;2022-08-02T06:06:18;7.63;;;6.20;;
4577;SDS011;2301;47.354;8.528;2022-08-02T06:08:50;9.70;;;6.80;;
4577;SDS011;2301;47.354;8.528;2022-08-02T06:11:21;10.87;;;6.30;;
4577;SDS011;2301;47.354;8.528;2022-08-02T06:13:49;7.83;;;5.63;;
4577;SDS011;2301;47.354;8.528;2022-08-02T06:16:19;6.77;;;5.40;;
4577;SDS011;2301;47.354;8.528;2022-08-02T06:18:46;6.40;;;5.70;;
4577;SDS011;2301;47.354;8.528;2022-08-02T06:21:13;8.93;;;5.93;;
4577;SDS011;2301;47.354;8.528;2022-08-02T06:23:43;8.90;;;5.13;;
4577;SDS011;2301;47.354;8.528;2022-08-02T06:26:10;12.83;;;5.87;;
4577;SDS011;2301;47.354;8.528;2022-08-02T06:28:40;14.60;;;6.50;;
4577;SDS011;2301;47.354;8.528;2022-08-02T06:31:08;14.33;;;6.10;;
4577;SDS011;2301;47.354;8.528;2022-08-02T06:33:39;9.47;;;5.60;;
4577;SDS011;2301;47.354;8.528;2022-08-02T06:36:09;9.23;;;5.60;;
4577;SDS011;2301;47.354;8.528;2022-08-02T06:38:48;14.33;;;5.13;;
4577;SDS011;2301;47.354;8.528;2022-08-02T06:41:20;4.50;;;4.00;;
4577;SDS011;2301;47.354;8.528;2022-08-02T06:43:52;6.27;;;4.27;;
4577;SDS011;2301;47.354;8.528;2022-08-02T06:46:20;6.27;;;3.77;;
4577;SDS011;2301;47.354;8.528;2022-08-02T06:48:47;4.90;;;4.03;;
4577;SDS011;2301;47.354;8.528;2022-08-02T06:51:14;13.63;;;4.20;;
4577;SDS011;2301;47.354;8.528;2022-08-02T06:53:42;4.67;;;3.93;;
4577;SDS011;2301;47.354;8.528;2022-08-02T06:56:12;5.57;;;4.47;;
4577;SDS011;2301;47.354;8.528;2022-08-02T06:58:39;6.77;;;4.20;;
4577;SDS011;2301;47.354;8.528;2022-08-02T07:01:06;5.77;;;4.60;;
4577;SDS011;2301;47.354;8.528;2022-08-02T07:03:34;7.30;;;5.40;;
4577;SDS011;2301;47.354;8.528;2022-08-02T07:06:01;4.37;;;3.97;;
4577;SDS011;2301;47.354;8.528;2022-08-02T07:08:33;6.27;;;4.83;;
4577;SDS011;2301;47.354;8.528;2022-08-02T07:11:02;5.30;;;4.23;;
4577;SDS011;2301;47.354;8.528;2022-08-02T07:13:31;9.73;;;5.07;;
4577;SDS011;2301;47.354;8.528;2022-08-02T07:15:59;5.70;;;4.10;;
4577;SDS011;2301;47.354;8.528;2022-08-02T07:18:27;4.33;;;3.77;;
4577;SDS011;2301;47.354;8.528;2022-08-02T07:20:54;5.97;;;4.10;;
4577;SDS011;2301;47.354;8.528;2022-08-02T07:23:21;5.97;;;3.87;;
4577;SDS011;2301;47.354;8.528;2022-08-02T07:25:48;5.63;;;4.83;;
4577;SDS011;2301;47.354;8.528;2022-08-02T07:28:16;5.83;;;4.80;;
4577;SDS011;2301;47.354;8.528;2022-08-02T07:30:45;7.63;;;4.60;;
4577;SDS011;2301;47.354;8.528;2022-08-02T07:33:12;4.83;;;3.80;;
4577;SDS011;2301;47.354;8.528;2022-08-02T07:35:39;6.87;;;4.33;;
4577;SDS011;2301;47.354;8.528;2022-08-02T07:38:06;7.50;;;3.90;;
4577;SDS011;2301;47.354;8.528;2022-08-02T07:40:33;7.37;;;4.07;;
4577;SDS011;2301;47.354;8.528;2022-08-02T07:43:01;6.63;;;3.70;;
4577;SDS011;2301;47.354;8.528;2022-08-02T07:45:28;4.63;;;3.50;;
4577;SDS011;2301;47.354;8.528;2022-08-02T07:47:56;4.37;;;3.97;;
4577;SDS011;2301;47.354;8.528;2022-08-02T07:50:23;6.20;;;3.47;;
4577;SDS011;2301;47.354;8.528;2022-08-02T07:52:52;5.60;;;3.80;;
4577;SDS011;2301;47.354;8.528;2022-08-02T07:55:21;3.17;;;2.87;;
4577;SDS011;2301;47.354;8.528;2022-08-02T07:57:50;5.00;;;3.20;;
4577;SDS011;2301;47.354;8.528;2022-08-02T08:00:20;5.77;;;3.57;;
4577;SDS011;2301;47.354;8.528;2022-08-02T08:02:47;4.80;;;3.07;;
4577;SDS011;2301;47.354;8.528;2022-08-02T08:05:16;6.30;;;3.20;;
4577;SDS011;2301;47.354;8.528;2022-08-02T08:07:43;3.47;;;2.90;;
4577;SDS011;2301;47.354;8.528;2022-08-02T08:10:10;2.83;;;2.63;;
4577;SDS011;2301;47.354;8.528;2022-08-02T08:12:37;2.63;;;2.50;;
4577;SDS011;2301;47.354;8.528;2022-08-02T08:15:07;2.40;;;2.20;;
4577;SDS011;2301;47.354;8.528;2022-08-02T08:17:41;2.70;;;2.50;;
4577;SDS011;2301;47.354;8.528;2022-08-02T08:20:11;2.50;;;2.20;;
4577;SDS011;2301;47.354;8.528;2022-08-02T08:22:39;3.13;;;2.30;;
4577;SDS011;2301;47.354;8.528;2022-08-02T08:25:14;3.73;;;2.83;;
4577;SDS011;2301;47.354;8.528;2022-08-02T08:27:46;3.23;;;3.03;;
4577;SDS011;2301;47.354;8.528;2022-08-02T08:30:14;4.20;;;2.80;;
4577;SDS011;2301;47.354;8.528;2022-08-02T08:32:43;3.43;;;3.13;;
4577;SDS011;2301;47.354;8.528;2022-08-02T08:35:16;3.43;;;2.60;;
4577;SDS011;2301;47.354;8.528;2022-08-02T08:37:45;2.73;;;2.53;;
4577;SDS011;2301;47.354;8.528;2022-08-02T08:40:12;3.90;;;2.60;;
4577;SDS011;2301;47.354;8.528;2022-08-02T08:42:44;3.40;;;2.43;;
4577;SDS011;2301;47.354;8.528;2022-08-02T08:45:12;3.33;;;3.03;;
4577;SDS011;2301;47.354;8.528;2022-08-02T08:47:40;2.90;;;2.70;;
4577;SDS011;2301;47.354;8.528;2022-08-02T08:50:15;3.47;;;3.13;;
4577;SDS011;2301;47.354;8.528;2022-08-02T08:52:47;3.37;;;2.30;;
4577;SDS011;2301;47.354;8.528;2022-08-02T08:55:19;4.00;;;3.23;;
4577;SDS011;2301;47.354;8.528;2022-08-02T08:57:48;3.50;;;3.20;;
4577;SDS011;2301;47.354;8.528;2022-08-02T09:00:16;4.90;;;3.80;;
4577;SDS011;2301;47.354;8.528;2022-08-02T09:02:43;3.83;;;3.53;;
4577;SDS011;2301;47.354;8.528;2022-08-02T09:05:11;3.67;;;3.07;;
4577;SDS011;2301;47.354;8.528;2022-08-02T09:07:39;4.00;;;2.97;;
4577;SDS011;2301;47.354;8.528;2022-08-02T09:13:04;3.27;;;3.00;;
4577;SDS011;2301;47.354;8.528;2022-08-02T09:15:32;3.53;;;3.23;;
4577;SDS011;2301;47.354;8.528;2022-08-02T09:18:00;3.63;;;3.33;;
4577;SDS011;2301;47.354;8.528;2022-08-02T09:20:31;5.37;;;2.80;;
4577;SDS011;2301;47.354;8.528;2022-08-02T09:23:08;4.30;;;2.97;;
4577;SDS011;2301;47.354;8.528;2022-08-02T09:25:40;3.93;;;3.43;;
4577;SDS011;2301;47.354;8.528;2022-08-02T09:28:10;2.93;;;2.63;;
4577;SDS011;2301;47.354;8.528;2022-08-02T09:30:41;2.80;;;2.70;;
4577;SDS011;2301;47.354;8.528;2022-08-02T09:33:08;3.17;;;2.97;;
4577;SDS011;2301;47.354;8.528;2022-08-02T09:35:36;3.67;;;3.20;;
4577;SDS011;2301;47.354;8.528;2022-08-02T09:38:08;2.97;;;2.77;;
4577;SDS011;2301;47.354;8.528;2022-08-02T09:40:36;3.43;;;3.03;;
4577;SDS011;2301;47.354;8.528;2022-08-02T09:43:05;4.03;;;3.23;;
4577;SDS011;2301;47.354;8.528;2022-08-02T09:45:34;2.93;;;2.73;;
4577;SDS011;2301;47.354;8.528;2022-08-02T09:48:02;3.10;;;2.80;;
4577;SDS011;2301;47.354;8.528;2022-08-02T09:50:32;3.40;;;2.93;;
4577;SDS011;2301;47.354;8.528;2022-08-02T09:52:59;2.87;;;2.67;;
4577;SDS011;2301;47.354;8.528;2022-08-02T09:55:27;3.20;;;2.90;;
4577;SDS011;2301;47.354;8.528;2022-08-02T09:57:57;3.13;;;2.93;;
4577;SDS011;2301;47.354;8.528;2022-08-02T10:00:27;3.37;;;2.70;;
4577;SDS011;2301;47.354;8.528;2022-08-02T10:03:04;3.20;;;3.00;;
4577;SDS011;2301;47.354;8.528;2022-08-02T10:05:43;3.23;;;2.90;;
4577;SDS011;2301;47.354;8.528;2022-08-02T10:08:12;3.90;;;2.67;;
4577;SDS011;2301;47.354;8.528;2022-08-02T10:10:45;3.13;;;2.83;;
4577;SDS011;2301;47.354;8.528;2022-08-02T10:13:25;3.43;;;2.70;;
4577;SDS011;2301;47.354;8.528;2022-08-02T10:15:55;3.03;;;2.83;;
4577;SDS011;2301;47.354;8.528;2022-08-02T10:18:28;2.23;;;2.10;;
4577;SDS011;2301;47.354;8.528;2022-08-02T10:20:55;2.90;;;2.70;;
4577;SDS011;2301;47.354;8.528;2022-08-02T10:23:27;3.70;;;2.70;;
4577;SDS011;2301;47.354;8.528;2022-08-02T10:25:56;2.97;;;2.77;;
4577;SDS011;2301;47.354;8.528;2022-08-02T10:28:25;3.43;;;3.13;;
4577;SDS011;2301;47.354;8.528;2022-08-02T10:31:06;3.73;;;2.90;;
4577;SDS011;2301;47.354;8.528;2022-08-02T10:33:34;3.20;;;2.90;;
4577;SDS011;2301;47.354;8.528;2022-08-02T10:36:03;2.60;;;2.50;;
4577;SDS011;2301;47.354;8.528;2022-08-02T10:38:33;2.97;;;2.70;;
4577;SDS011;2301;47.354;8.528;2022-08-02T10:41:01;2.83;;;2.57;;
4577;SDS011;2301;47.354;8.528;2022-08-02T10:46:20;3.77;;;2.67;;
4577;SDS011;2301;47.354;8.528;2022-08-02T10:49:06;4.33;;;3.03;;
4577;SDS011;2301;47.354;8.528;2022-08-02T10:54:24;3.00;;;2.40;;
4577;SDS011;2301;47.354;8.528;2022-08-02T10:56:52;3.73;;;2.80;;
4577;SDS011;2301;47.354;8.528;2022-08-02T10:59:25;3.20;;;2.40;;
4577;SDS011;2301;47.354;8.528;2022-08-02T11:01:56;2.87;;;2.57;;
4577;SDS011;2301;47.354;8.528;2022-08-02T11:04:28;6.20;;;3.17;;
4577;SDS011;2301;47.354;8.528;2022-08-02T11:07:07;3.30;;;3.00;;
4577;SDS011;2301;47.354;8.528;2022-08-02T11:09:39;2.87;;;2.60;;
4577;SDS011;2301;47.354;8.528;2022-08-02T11:12:07;3.43;;;3.03;;
4577;SDS011;2301;47.354;8.528;2022-08-02T11:14:36;4.67;;;2.73;;
4577;SDS011;2301;47.354;8.528;2022-08-02T11:22:43;4.97;;;2.80;;
4577;SDS011;2301;47.354;8.528;2022-08-02T11:25:28;2.30;;;2.20;;
4577;SDS011;2301;47.354;8.528;2022-08-02T11:27:57;5.83;;;2.53;;
4577;SDS011;2301;47.354;8.528;2022-08-02T11:30:27;2.83;;;2.63;;
4577;SDS011;2301;47.354;8.528;2022-08-02T11:32:56;3.27;;;2.97;;
4577;SDS011;2301;47.354;8.528;2022-08-02T11:35:30;2.90;;;2.70;;
4577;SDS011;2301;47.354;8.528;2022-08-02T11:38:11;2.30;;;2.20;;
4577;SDS011;2301;47.354;8.528;2022-08-02T11:40:46;2.60;;;2.40;;
4577;SDS011;2301;47.354;8.528;2022-08-02T11:43:17;2.63;;;2.43;;
4577;SDS011;2301;47.354;8.528;2022-08-02T11:45:45;2.70;;;2.60;;
4577;SDS011;2301;47.354;8.528;2022-08-02T11:48:14;3.00;;;2.80;;
4577;SDS011;2301;47.354;8.528;2022-08-02T11:51:07;3.03;;;2.40;;
4577;SDS011;2301;47.354;8.528;2022-08-02T11:53:45;2.27;;;2.17;;
4577;SDS011;2301;47.354;8.528;2022-08-02T11:56:14;3.97;;;2.70;;
4577;SDS011;2301;47.354;8.528;2022-08-02T12:01:31;2.80;;;2.30;;
4577;SDS011;2301;47.354;8.528;2022-08-02T12:04:02;4.80;;;3.00;;
4577;SDS011;2301;47.354;8.528;2022-08-02T12:06:30;3.00;;;2.70;;
4577;SDS011;2301;47.354;8.528;2022-08-02T12:09:02;4.53;;;2.60;;
4577;SDS011;2301;47.354;8.528;2022-08-02T12:11:30;3.10;;;2.90;;
4577;SDS011;2301;47.354;8.528;2022-08-02T12:13:57;4.17;;;2.37;;
4577;SDS011;2301;47.354;8.528;2022-08-02T12:16:31;2.50;;;2.33;;
4577;SDS011;2301;47.354;8.528;2022-08-02T12:19:18;2.60;;;2.17;;
4577;SDS011;2301;47.354;8.528;2022-08-02T12:24:35;3.00;;;2.70;;
4577;SDS011;2301;47.354;8.528;2022-08-02T12:27:09;5.47;;;2.70;;
4577;SDS011;2301;47.354;8.528;2022-08-02T12:29:39;3.53;;;2.60;;
4577;SDS011;2301;47.354;8.528;2022-08-02T12:32:07;2.63;;;2.17;;
4577;SDS011;2301;47.354;8.528;2022-08-02T12:34:35;2.37;;;2.27;;
4577;SDS011;2301;47.354;8.528;2022-08-02T12:37:03;2.30;;;2.10;;
4577;SDS011;2301;47.354;8.528;2022-08-02T12:39:36;3.37;;;3.07;;
4577;SDS011;2301;47.354;8.528;2022-08-02T12:42:05;5.37;;;2.90;;
4577;SDS011;2301;47.354;8.528;2022-08-02T12:44:38;4.93;;;2.40;;
4577;SDS011;2301;47.354;8.528;2022-08-02T12:47:15;4.70;;;2.90;;
4577;SDS011;2301;47.354;8.528;2022-08-02T12:49:44;3.57;;;2.60;;
4577;SDS011;2301;47.354;8.528;2022-08-02T12:52:19;2.40;;;2.20;;
4577;SDS011;2301;47.354;8.528;2022-08-02T12:54:46;2.60;;;2.50;;
4577;SDS011;2301;47.354;8.528;2022-08-02T12:57:16;3.50;;;2.47;;
4577;SDS011;2301;47.354;8.528;2022-08-02T12:59:48;2.97;;;2.77;;
4577;SDS011;2301;47.354;8.528;2022-08-02T13:02:17;2.67;;;2.47;;
4577;SDS011;2301;47.354;8.528;2022-08-02T13:04:50;3.10;;;2.83;;
4577;SDS011;2301;47.354;8.528;2022-08-02T13:07:19;2.70;;;2.50;;
4577;SDS011;2301;47.354;8.528;2022-08-02T13:09:46;2.47;;;2.37;;
4577;SDS011;2301;47.354;8.528;2022-08-02T13:12:14;2.30;;;2.20;;
4577;SDS011;2301;47.354;8.528;2022-08-02T13:14:41;2.33;;;2.13;;
4577;SDS011;2301;47.354;8.528;2022-08-02T13:17:10;2.33;;;2.23;;
4577;SDS011;2301;47.354;8.528;2022-08-02T13:19:37;2.53;;;2.30;;
4577;SDS011;2301;47.354;8.528;2022-08-02T13:22:06;7.03;;;2.40;;
4577;SDS011;2301;47.354;8.528;2022-08-02T13:24:35;7.00;;;2.23;;
4577;SDS011;2301;47.354;8.528;2022-08-02T13:27:03;2.83;;;2.63;;
4577;SDS011;2301;47.354;8.528;2022-08-02T13:29:31;2.23;;;2.13;;
4577;SDS011;2301;47.354;8.528;2022-08-02T13:31:57;1.67;;;1.57;;
4577;SDS011;2301;47.354;8.528;2022-08-02T13:34:25;2.10;;;2.00;;
4577;SDS011;2301;47.354;8.528;2022-08-02T13:36:51;2.30;;;2.10;;
4577;SDS011;2301;47.354;8.528;2022-08-02T13:39:23;2.17;;;1.97;;
4577;SDS011;2301;47.354;8.528;2022-08-02T13:41:59;2.83;;;2.10;;
4577;SDS011;2301;47.354;8.528;2022-08-02T13:44:29;2.87;;;1.63;;
4577;SDS011;2301;47.354;8.528;2022-08-02T13:46:56;3.67;;;2.20;;
4577;SDS011;2301;47.354;8.528;2022-08-02T13:49:23;2.30;;;2.10;;
4577;SDS011;2301;47.354;8.528;2022-08-02T13:51:50;2.20;;;2.10;;
4577;SDS011;2301;47.354;8.528;2022-08-02T13:54:17;2.10;;;2.00;;
4577;SDS011;2301;47.354;8.528;2022-08-02T13:56:48;1.97;;;1.80;;
4577;SDS011;2301;47.354;8.528;2022-08-02T13:59:18;3.00;;;2.40;;
4577;SDS011;2301;47.354;8.528;2022-08-02T14:01:45;2.07;;;1.97;;
4577;SDS011;2301;47.354;8.528;2022-08-02T14:04:12;2.30;;;2.20;;
4577;SDS011;2301;47.354;8.528;2022-08-02T14:06:38;4.23;;;2.10;;
4577;SDS011;2301;47.354;8.528;2022-08-02T14:09:05;4.63;;;2.30;;
4577;SDS011;2301;47.354;8.528;2022-08-02T14:11:33;2.90;;;2.43;;
4577;SDS011;2301;47.354;8.528;2022-08-02T14:14:02;3.97;;;2.00;;
4577;SDS011;2301;47.354;8.528;2022-08-02T14:16:29;2.87;;;2.00;;
4577;SDS011;2301;47.354;8.528;2022-08-02T14:18:56;2.90;;;2.33;;
4577;SDS011;2301;47.354;8.528;2022-08-02T14:21:23;2.20;;;2.10;;
4577;SDS011;2301;47.354;8.528;2022-08-02T14:23:51;3.63;;;2.03;;
4577;SDS011;2301;47.354;8.528;2022-08-02T14:26:18;2.37;;;2.20;;
4577;SDS011;2301;47.354;8.528;2022-08-02T14:28:45;2.90;;;2.10;;
4577;SDS011;2301;47.354;8.528;2022-08-02T14:31:17;2.17;;;2.07;;
4577;SDS011;2301;47.354;8.528;2022-08-02T14:33:47;2.37;;;1.87;;
4577;SDS011;2301;47.354;8.528;2022-08-02T14:36:14;2.93;;;2.33;;
4577;SDS011;2301;47.354;8.528;2022-08-02T14:38:41;2.40;;;2.30;;
4577;SDS011;2301;47.354;8.528;2022-08-02T14:41:10;2.33;;;2.20;;
4577;SDS011;2301;47.354;8.528;2022-08-02T14:43:40;2.40;;;2.30;;
4577;SDS011;2301;47.354;8.528;2022-08-02T14:46:26;2.03;;;1.93;;
4577;SDS011;2301;47.354;8.528;2022-08-02T14:48:53;2.57;;;2.37;;
4577;SDS011;2301;47.354;8.528;2022-08-02T14:51:20;3.37;;;2.17;;
4577;SDS011;2301;47.354;8.528;2022-08-02T14:53:48;4.20;;;2.43;;
4577;SDS011;2301;47.354;8.528;2022-08-02T14:56:18;2.23;;;2.13;;
4577;SDS011;2301;47.354;8.528;2022-08-02T14:58:45;2.50;;;2.40;;
4577;SDS011;2301;47.354;8.528;2022-08-02T15:01:12;2.50;;;2.30;;
4577;SDS011;2301;47.354;8.528;2022-08-02T15:03:40;2.23;;;2.10;;
4577;SDS011;2301;47.354;8.528;2022-08-02T15:06:10;2.40;;;2.20;;
4577;SDS011;2301;47.354;8.528;2022-08-02T15:08:39;2.27;;;2.17;;
4577;SDS011;2301;47.354;8.528;2022-08-02T15:11:06;3.30;;;2.40;;
4577;SDS011;2301;47.354;8.528;2022-08-02T15:13:42;2.00;;;1.87;;
4577;SDS011;2301;47.354;8.528;2022-08-02T15:16:23;5.07;;;2.33;;
4577;SDS011;2301;47.354;8.528;2022-08-02T15:18:51;2.83;;;2.50;;
4577;SDS011;2301;47.354;8.528;2022-08-02T15:21:38;2.20;;;2.10;;
4577;SDS011;2301;47.354;8.528;2022-08-02T15:24:09;3.63;;;2.17;;
4577;SDS011;2301;47.354;8.528;2022-08-02T15:26:39;3.73;;;2.63;;
4577;SDS011;2301;47.354;8.528;2022-08-02T15:29:06;2.30;;;2.10;;
4577;SDS011;2301;47.354;8.528;2022-08-02T15:31:33;2.97;;;2.73;;
4577;SDS011;2301;47.354;8.528;2022-08-02T15:34:01;2.90;;;2.27;;
4577;SDS011;2301;47.354;8.528;2022-08-02T15:36:30;3.47;;;2.30;;
4577;SDS011;2301;47.354;8.528;2022-08-02T15:39:02;2.50;;;2.30;;
4577;SDS011;2301;47.354;8.528;2022-08-02T15:41:33;6.33;;;2.30;;
4577;SDS011;2301;47.354;8.528;2022-08-02T15:44:00;2.40;;;2.20;;
4577;SDS011;2301;47.354;8.528;2022-08-02T15:46:27;6.10;;;2.20;;
4577;SDS011;2301;47.354;8.528;2022-08-02T15:48:57;3.60;;;2.60;;
4577;SDS011;2301;47.354;8.528;2022-08-02T15:51:27;2.93;;;2.40;;
4577;SDS011;2301;47.354;8.528;2022-08-02T15:53:53;4.00;;;2.40;;